Time;durP1;ratioP1;P1;durP2;ratioP2;P2;SDS_P1;SDS_P2;PMS_P1;PMS_P2;Temp;Humidity;BMP_temperature;BMP_pressure;BME280_temperature;BME280_humidity;BME280_pressure;Samples;Min_cycle;Max_cycle;Signal;HPM_P1;HPM_P2
2023/07/08 00:00:47;;;;;;;2.25;1.98;;;;;;;;;;5035128;28;20383;-75
2023/07/08 00:03:13;;;;;;;2.30;2.10;;;;;;;;;;5052177;28;20025;-75
2023/07/08 00:05:39;;;;;;;2.20;2.00;;;;;;;;;;5035060;28;20029;-76
2023/07/08 00:08:05;;;;;;;2.85;2.30;;;;;;;;;;5052666;28;20025;-75
2023/07/08 00:10:30;;;;;;;3.33;2.08;;;;;;;;;;5052691;28;20025;-76
2023/07/08 00:12:57;;;;;;;2.33;2.08;;;;;;;;;;5052123;28;20033;-75
2023/07/08 00:15:27;;;;;;;2.70;2.15;;;;;;;;;;5054487;28;20452;-76
2023/07/08 00:17:52;;;;;;;2.15;1.95;;;;;;;;;;5054757;28;20033;-75
2023/07/08 00:20:28;;;;;;;2.25;1.80;;;;;;;;;;5038080;28;20035;-75
2023/07/08 00:22:54;;;;;;;2.50;1.85;;;;;;;;;;5055193;28;20024;-75
2023/07/08 00:25:20;;;;;;;3.05;2.10;;;;;;;;;;5072815;28;20164;-75
2023/07/08 00:27:47;;;;;;;2.30;2.10;;;;;;;;;;5056663;28;20036;-76
2023/07/08 00:30:31;;;;;;;3.95;1.95;;;;;;;;;;5058540;28;20028;-75
2023/07/08 00:32:56;;;;;;;;;;;;;;;;;;5042436;28;20039;-75
2023/07/08 00:35:34;;;;;;;2.50;1.83;;;;;;;;;;5058383;28;20283;-75
2023/07/08 00:38:02;;;;;;;2.20;2.00;;;;;;;;;;5076186;28;20099;-75
2023/07/08 00:40:32;;;;;;;2.17;1.88;;;;;;;;;;5076270;28;20033;-75
2023/07/08 00:43:00;;;;;;;2.35;2.15;;;;;;;;;;5076294;28;20033;-75
2023/07/08 00:45:35;;;;;;;2.17;1.98;;;;;;;;;;5058424;28;20134;-75
2023/07/08 00:48:24;;;;;;;1.80;1.70;;;;;;;;;;5076031;28;20044;-76
2023/07/08 00:50:52;;;;;;;2.22;2.00;;;;;;;;;;5075394;28;20119;-75
2023/07/08 00:53:28;;;;;;;2.80;1.73;;;;;;;;;;5058177;28;20040;-76
2023/07/08 00:55:57;;;;;;;2.10;1.90;;;;;;;;;;5058379;28;20040;-75
2023/07/08 00:58:23;;;;;;;2.00;1.80;;;;;;;;;;5041226;28;20016;-75
2023/07/08 01:00:51;;;;;;;3.17;1.90;;;;;;;;;;5058196;28;20036;-75
2023/07/08 01:03:18;;;;;;;2.22;1.83;;;;;;;;;;5057661;28;20472;-76
2023/07/08 01:05:43;;;;;;;2.40;2.20;;;;;;;;;;5057700;28;20031;-75
2023/07/08 01:08:09;;;;;;;2.15;1.95;;;;;;;;;;5057995;28;20032;-75
2023/07/08 01:10:49;;;;;;;2.60;2.00;;;;;;;;;;5057746;28;20387;-75
2023/07/08 01:13:16;;;;;;;2.40;1.77;;;;;;;;;;5055782;28;20020;-76
2023/07/08 01:15:43;;;;;;;4.00;1.80;;;;;;;;;;5021180;28;20086;-76
2023/07/08 01:18:10;;;;;;;1.90;1.70;;;;;;;;;;5021092;28;20536;-76
2023/07/08 01:20:35;;;;;;;2.00;1.77;;;;;;;;;;5021008;28;20033;-76
2023/07/08 01:23:01;;;;;;;2.47;1.90;;;;;;;;;;5055543;28;20444;-75
2023/07/08 01:25:26;;;;;;;2.80;1.73;;;;;;;;;;5037788;28;20108;-76
2023/07/08 01:27:57;;;;;;;2.05;1.85;;;;;;;;;;5037154;28;20476;-76
2023/07/08 01:30:22;;;;;;;1.98;1.77;;;;;;;;;;5037272;28;20033;-75
2023/07/08 01:32:49;;;;;;;1.85;1.65;;;;;;;;;;5037578;28;20479;-76
2023/07/08 01:35:15;;;;;;;2.67;1.80;;;;;;;;;;5037265;28;20029;-76
2023/07/08 01:37:44;;;;;;;2.42;1.90;;;;;;;;;;5037370;28;20032;-75
2023/07/08 01:40:18;;;;;;;2.25;1.83;;;;;;;;;;5054028;28;20021;-76
2023/07/08 01:42:44;;;;;;;3.22;1.95;;;;;;;;;;5054930;28;20100;-76
2023/07/08 01:45:15;;;;;;;2.95;1.88;;;;;;;;;;5020660;28;20052;-76
2023/07/08 01:47:41;;;;;;;3.00;2.08;;;;;;;;;;5055029;28;20116;-76
2023/07/08 01:50:07;;;;;;;3.35;1.90;;;;;;;;;;5037009;28;20112;-75
2023/07/08 01:52:33;;;;;;;1.80;1.70;;;;;;;;;;5020520;28;20086;-76
2023/07/08 01:54:58;;;;;;;1.70;1.60;;;;;;;;;;5054962;28;20033;-76
2023/07/08 01:57:24;;;;;;;2.47;1.90;;;;;;;;;;5055024;28;20060;-76
2023/07/08 01:59:50;;;;;;;1.80;1.70;;;;;;;;;;5036850;28;20106;-76
2023/07/08 02:02:15;;;;;;;2.28;1.70;;;;;;;;;;5037302;28;20082;-76
2023/07/08 02:04:40;;;;;;;2.15;1.70;;;;;;;;;;5020191;28;20025;-75
2023/07/08 02:07:06;;;;;;;3.75;1.95;;;;;;;;;;5054686;28;20036;-75
2023/07/08 02:09:31;;;;;;;2.50;1.95;;;;;;;;;;5020063;28;20033;-76
2023/07/08 02:11:57;;;;;;;2.50;1.90;;;;;;;;;;5054355;28;20078;-76
2023/07/08 02:14:22;;;;;;;5.93;1.80;;;;;;;;;;5036307;28;20589;-75
2023/07/08 02:16:47;;;;;;;3.53;1.70;;;;;;;;;;5054023;28;20159;-76
2023/07/08 02:19:13;;;;;;;3.03;1.88;;;;;;;;;;5036753;28;20401;-76
2023/07/08 02:21:39;;;;;;;2.28;1.80;;;;;;;;;;5036389;28;20075;-76
2023/07/08 02:24:05;;;;;;;2.72;1.98;;;;;;;;;;5036660;28;20472;-76
2023/07/08 02:26:33;;;;;;;1.58;1.48;;;;;;;;;;5036223;28;20040;-75
2023/07/08 02:28:59;;;;;;;1.80;1.60;;;;;;;;;;5036770;28;20053;-75
2023/07/08 02:31:24;;;;;;;1.90;1.70;;;;;;;;;;5054413;28;20028;-75
2023/07/08 02:33:51;;;;;;;4.75;1.98;;;;;;;;;;5036070;28;20036;-75
2023/07/08 02:36:16;;;;;;;1.73;1.60;;;;;;;;;;5054168;28;20483;-75
2023/07/08 02:38:41;;;;;;;2.33;1.88;;;;;;;;;;5019437;28;20036;-76
2023/07/08 02:41:07;;;;;;;2.03;1.60;;;;;;;;;;5019489;28;20036;-76
2023/07/08 02:43:32;;;;;;;2.15;1.77;;;;;;;;;;5035999;28;20056;-76
2023/07/08 02:45:58;;;;;;;1.67;1.58;;;;;;;;;;5053958;28;20426;-76
2023/07/08 02:48:23;;;;;;;1.83;1.55;;;;;;;;;;5036040;28;20035;-76
2023/07/08 02:50:49;;;;;;;2.55;1.77;;;;;;;;;;5035475;28;20043;-76
2023/07/08 02:53:14;;;;;;;1.73;1.58;;;;;;;;;;5019456;28;20043;-76
2023/07/08 02:55:42;;;;;;;2.30;1.88;;;;;;;;;;5019505;28;20033;-76
2023/07/08 02:58:09;;;;;;;1.60;1.50;;;;;;;;;;5054094;28;20051;-75
2023/07/08 03:00:37;;;;;;;1.63;1.52;;;;;;;;;;5035957;28;20020;-76
2023/07/08 03:03:03;;;;;;;2.47;2.10;;;;;;;;;;5053996;28;20025;-76
2023/07/08 03:05:28;;;;;;;1.60;1.50;;;;;;;;;;5053408;28;20135;-75
2023/07/08 03:07:54;;;;;;;2.08;1.77;;;;;;;;;;5019003;28;20116;-76
2023/07/08 03:10:19;;;;;;;2.47;1.73;;;;;;;;;;5035803;28;20111;-75
2023/07/08 03:12:45;;;;;;;1.67;1.58;;;;;;;;;;5035805;28;20078;-75
2023/07/08 03:15:10;;;;;;;2.72;1.83;;;;;;;;;;5055112;28;20041;-76
2023/07/08 03:17:35;;;;;;;2.63;1.73;;;;;;;;;;5053268;28;20033;-75
2023/07/08 03:20:01;;;;;;;3.72;1.85;;;;;;;;;;5035599;28;20064;-75
2023/07/08 03:22:26;;;;;;;1.83;1.58;;;;;;;;;;5035239;28;20425;-75
2023/07/08 03:24:51;;;;;;;5.07;1.90;;;;;;;;;;5053088;28;20024;-75
2023/07/08 03:27:17;;;;;;;1.90;1.80;;;;;;;;;;5053508;28;20064;-75
2023/07/08 03:29:42;;;;;;;2.50;1.75;;;;;;;;;;5053060;28;20032;-76
2023/07/08 03:32:11;;;;;;;4.55;1.60;;;;;;;;;;5052745;28;20087;-75
2023/07/08 03:34:37;;;;;;;2.95;1.90;;;;;;;;;;5035255;28;20024;-75
2023/07/08 03:37:02;;;;;;;2.00;1.60;;;;;;;;;;5034949;28;20028;-76
2023/07/08 03:39:28;;;;;;;1.83;1.65;;;;;;;;;;5053325;28;20336;-76
2023/07/08 03:41:53;;;;;;;1.85;1.45;;;;;;;;;;5018456;28;20055;-75
2023/07/08 03:44:19;;;;;;;2.33;1.63;;;;;;;;;;5053063;28;20110;-75
2023/07/08 03:46:46;;;;;;;4.10;1.60;;;;;;;;;;5035316;28;20475;-76
2023/07/08 03:49:11;;;;;;;1.55;1.45;;;;;;;;;;5053007;28;20040;-76
2023/07/08 03:51:39;;;;;;;3.10;1.70;;;;;;;;;;5053022;28;20384;-75
2023/07/08 03:54:06;;;;;;;1.77;1.60;;;;;;;;;;5034918;28;20121;-76
2023/07/08 03:56:32;;;;;;;3.83;1.80;;;;;;;;;;5052910;28;20025;-76
2023/07/08 03:58:57;;;;;;;1.73;1.60;;;;;;;;;;5034847;28;20078;-76
2023/07/08 04:01:24;;;;;;;1.85;1.70;;;;;;;;;;5018027;28;20029;-76
2023/07/08 04:03:51;;;;;;;2.17;1.60;;;;;;;;;;5038146;28;20025;-76
2023/07/08 04:06:17;;;;;;;2.92;1.92;;;;;;;;;;5021863;28;20042;-76
2023/07/08 04:08:43;;;;;;;2.00;1.77;;;;;;;;;;5022147;28;20033;-76
2023/07/08 04:11:11;;;;;;;2.80;1.73;;;;;;;;;;5039392;28;20083;-76
2023/07/08 04:13:36;;;;;;;1.67;1.52;;;;;;;;;;5057009;28;20107;-76
2023/07/08 04:16:03;;;;;;;4.10;1.70;;;;;;;;;;5056328;28;20430;-76
2023/07/08 04:18:28;;;;;;;2.42;1.60;;;;;;;;;;5021850;28;20033;-76
2023/07/08 04:20:54;;;;;;;2.50;1.60;;;;;;;;;;5038741;28;20032;-76
2023/07/08 04:23:20;;;;;;;1.95;1.58;;;;;;;;;;5056259;28;20112;-75
2023/07/08 04:25:47;;;;;;;1.63;1.52;;;;;;;;;;5038717;28;20033;-76
2023/07/08 04:28:13;;;;;;;2.40;1.70;;;;;;;;;;5038377;28;20059;-75
2023/07/08 04:30:40;;;;;;;1.95;1.60;;;;;;;;;;5038517;28;20112;-76
2023/07/08 04:33:13;;;;;;;1.70;1.58;;;;;;;;;;5038894;28;20028;-76
2023/07/08 04:35:40;;;;;;;1.70;1.60;;;;;;;;;;5021723;28;20028;-76
2023/07/08 04:38:09;;;;;;;1.85;1.70;;;;;;;;;;5038390;28;20094;-76
2023/07/08 04:40:40;;;;;;;1.88;1.70;;;;;;;;;;5059682;28;20029;-75
2023/07/08 04:43:06;;;;;;;1.63;1.50;;;;;;;;;;5057129;28;20037;-76
2023/07/08 04:45:32;;;;;;;3.30;1.92;;;;;;;;;;5038086;28;20059;-76
2023/07/08 04:47:58;;;;;;;2.60;1.38;;;;;;;;;;5021393;28;20149;-76
2023/07/08 04:50:23;;;;;;;2.33;1.70;;;;;;;;;;5021334;28;20364;-76
2023/07/08 04:52:49;;;;;;;2.45;1.80;;;;;;;;;;5038089;28;20032;-74
2023/07/08 04:55:15;;;;;;;2.67;1.60;;;;;;;;;;5021355;28;20029;-76
2023/07/08 04:57:40;;;;;;;2.38;1.95;;;;;;;;;;5038062;28;20095;-76
2023/07/08 05:00:10;;;;;;;1.60;1.50;;;;;;;;;;5055726;28;20128;-76
2023/07/08 05:02:35;;;;;;;1.92;1.63;;;;;;;;;;5022582;28;20025;-75
2023/07/08 05:05:01;;;;;;;2.00;1.73;;;;;;;;;;5055472;28;20440;-76
2023/07/08 05:07:27;;;;;;;1.70;1.60;;;;;;;;;;5054351;28;20041;-75
2023/07/08 05:09:52;;;;;;;3.35;1.58;;;;;;;;;;5038016;28;20032;-76
2023/07/08 05:12:18;;;;;;;1.50;1.40;;;;;;;;;;5038285;28;20387;-75
2023/07/08 05:14:43;;;;;;;2.10;1.90;;;;;;;;;;5055224;28;20057;-75
2023/07/08 05:17:10;;;;;;;1.70;1.60;;;;;;;;;;5020793;28;20022;-75
2023/07/08 05:19:35;;;;;;;1.70;1.60;;;;;;;;;;5020907;28;20017;-75
2023/07/08 05:22:01;;;;;;;1.80;1.70;;;;;;;;;;5055529;28;20033;-75
2023/07/08 05:24:26;;;;;;;1.60;1.50;;;;;;;;;;5037703;28;20050;-75
2023/07/08 05:26:52;;;;;;;1.65;1.50;;;;;;;;;;5020728;28;20469;-74
2023/07/08 05:29:17;;;;;;;1.98;1.52;;;;;;;;;;5037604;28;20036;-76
2023/07/08 05:31:43;;;;;;;2.90;1.65;;;;;;;;;;5055278;28;20112;-75
2023/07/08 05:34:08;;;;;;;2.03;1.80;;;;;;;;;;5037385;28;20036;-75
2023/07/08 05:36:33;;;;;;;1.67;1.50;;;;;;;;;;5037505;28;20383;-76
2023/07/08 05:38:59;;;;;;;2.20;1.70;;;;;;;;;;5036932;28;20032;-76
2023/07/08 05:41:24;;;;;;;1.80;1.70;;;;;;;;;;5055078;28;20051;-76
2023/07/08 05:43:50;;;;;;;2.50;1.92;;;;;;;;;;5020442;28;20025;-75
2023/07/08 05:46:15;;;;;;;2.47;1.60;;;;;;;;;;5020634;28;20029;-76
2023/07/08 05:48:40;;;;;;;2.10;1.73;;;;;;;;;;5020469;28;20087;-76
2023/07/08 05:51:06;;;;;;;4.85;2.13;;;;;;;;;;5036942;28;20393;-76
2023/07/08 05:53:31;;;;;;;4.30;2.10;;;;;;;;;;5054755;28;20112;-76
2023/07/08 05:55:57;;;;;;;11.20;2.75;;;;;;;;;;5054786;28;20538;-76
2023/07/08 05:58:22;;;;;;;4.18;2.33;;;;;;;;;;5036941;28;20425;-76
2023/07/08 06:00:54;;;;;;;4.47;2.58;;;;;;;;;;5020055;28;20048;-76
2023/07/08 06:03:20;;;;;;;5.30;2.70;;;;;;;;;;5036557;28;20416;-75
2023/07/08 06:05:45;;;;;;;3.90;2.63;;;;;;;;;;5036861;28;20021;-78
2023/07/08 06:08:11;;;;;;;6.60;2.55;;;;;;;;;;5020545;28;20115;-77
2023/07/08 06:10:41;;;;;;;6.57;3.40;;;;;;;;;;5054855;28;20029;-77
2023/07/08 06:13:07;;;;;;;8.43;3.53;;;;;;;;;;5037504;28;20056;-78
2023/07/08 06:15:32;;;;;;;5.93;2.92;;;;;;;;;;5054644;28;20045;-78
2023/07/08 06:18:00;;;;;;;4.72;2.85;;;;;;;;;;5054835;28;20032;-77
2023/07/08 06:20:26;;;;;;;5.15;2.50;;;;;;;;;;5054531;28;20090;-77
2023/07/08 06:22:51;;;;;;;4.80;2.95;;;;;;;;;;5037077;28;20029;-77
2023/07/08 06:25:16;;;;;;;5.40;2.90;;;;;;;;;;5019208;28;20377;-76
2023/07/08 06:27:42;;;;;;;5.90;2.95;;;;;;;;;;5036051;28;20029;-76
2023/07/08 06:30:08;;;;;;;4.07;2.70;;;;;;;;;;5036355;28;20039;-77
2023/07/08 06:32:33;;;;;;;4.88;2.85;;;;;;;;;;5036160;28;20033;-76
2023/07/08 06:34:58;;;;;;;5.55;2.50;;;;;;;;;;5036271;28;20486;-76
2023/07/08 06:37:24;;;;;;;5.43;2.47;;;;;;;;;;5035807;28;20032;-76
2023/07/08 06:39:49;;;;;;;5.20;2.50;;;;;;;;;;5053935;28;20025;-76
2023/07/08 06:42:14;;;;;;;5.15;2.47;;;;;;;;;;5053580;28;20029;-75
2023/07/08 06:44:41;;;;;;;5.47;2.80;;;;;;;;;;5053750;28;20360;-76
2023/07/08 06:47:07;;;;;;;3.75;2.42;;;;;;;;;;5035351;28;20412;-78
2023/07/08 06:49:32;;;;;;;5.85;3.00;;;;;;;;;;5053650;28;20120;-78
2023/07/08 06:51:59;;;;;;;16.73;4.72;;;;;;;;;;5035970;28;20039;-77
2023/07/08 06:54:25;;;;;;;37.67;7.13;;;;;;;;;;5019288;28;20078;-77
2023/07/08 06:56:50;;;;;;;37.95;9.15;;;;;;;;;;5035509;28;20025;-77
2023/07/08 06:59:15;;;;;;;26.10;7.05;;;;;;;;;;5035695;28;20037;-77
2023/07/08 07:01:41;;;;;;;22.67;7.00;;;;;;;;;;5053703;28;20032;-77
2023/07/08 07:04:07;;;;;;;20.65;7.07;;;;;;;;;;5035897;28;20041;-77
2023/07/08 07:06:32;;;;;;;20.08;6.28;;;;;;;;;;5053376;28;20033;-76
2023/07/08 07:08:57;;;;;;;19.27;7.60;;;;;;;;;;5053428;28;20037;-77
2023/07/08 07:11:23;;;;;;;21.25;7.13;;;;;;;;;;5055332;28;20479;-77
2023/07/08 07:13:48;;;;;;;23.33;7.15;;;;;;;;;;5022874;28;20128;-77
2023/07/08 07:16:14;;;;;;;16.00;5.90;;;;;;;;;;5054325;28;20475;-77
2023/07/08 07:18:39;;;;;;;17.15;6.75;;;;;;;;;;5054363;28;20471;-77
2023/07/08 07:21:04;;;;;;;13.75;5.88;;;;;;;;;;5054241;28;20111;-76
2023/07/08 07:23:30;;;;;;;16.02;6.00;;;;;;;;;;5054207;28;20032;-77
2023/07/08 07:25:57;;;;;;;19.77;6.00;;;;;;;;;;5054733;28;20033;-77
2023/07/08 07:28:22;;;;;;;13.88;5.30;;;;;;;;;;5054607;28;20024;-77
2023/07/08 07:30:56;;;;;;;17.17;5.18;;;;;;;;;;5072062;28;20037;-77
2023/07/08 07:33:21;;;;;;;;;;;;;;;;;;5054664;28;20047;-76
2023/07/08 07:35:46;;;;;;;12.60;4.70;;;;;;;;;;5054257;28;19916;-76
2023/07/08 07:38:14;;;;;;;12.60;4.97;;;;;;;;;;5052790;28;20348;-76
2023/07/08 07:40:39;;;;;;;14.73;4.97;;;;;;;;;;5054190;28;20467;-76
2023/07/08 07:43:05;;;;;;;15.60;4.53;;;;;;;;;;5054083;28;20093;-77
2023/07/08 07:45:30;;;;;;;11.80;4.35;;;;;;;;;;5054295;28;20116;-77
2023/07/08 07:47:55;;;;;;;10.07;4.00;;;;;;;;;;5072069;28;20029;-77
2023/07/08 07:50:21;;;;;;;12.60;4.70;;;;;;;;;;5053719;28;20048;-77
2023/07/08 07:52:46;;;;;;;9.65;3.92;;;;;;;;;;5071922;28;20029;-76
2023/07/08 07:55:12;;;;;;;12.15;4.40;;;;;;;;;;5053906;28;20029;-77
2023/07/08 07:57:37;;;;;;;12.02;4.07;;;;;;;;;;5071723;28;20031;-76
2023/07/08 08:00:03;;;;;;;7.50;3.67;;;;;;;;;;5054014;28;20024;-77
2023/07/08 08:02:28;;;;;;;7.75;3.70;;;;;;;;;;5053660;28;20541;-77
2023/07/08 08:04:54;;;;;;;7.05;3.60;;;;;;;;;;5054035;28;20036;-78
2023/07/08 08:07:20;;;;;;;10.95;3.75;;;;;;;;;;5053497;28;20108;-77
2023/07/08 08:09:45;;;;;;;17.33;3.85;;;;;;;;;;5053826;28;20074;-77
2023/07/08 08:12:11;;;;;;;8.60;3.45;;;;;;;;;;5071605;28;20036;-77
2023/07/08 08:14:37;;;;;;;8.57;3.50;;;;;;;;;;5011457;28;1130407;-77
2023/07/08 08:17:04;;;;;;;7.25;3.53;;;;;;;;;;5051196;28;20033;-77
2023/07/08 08:19:29;;;;;;;9.70;3.70;;;;;;;;;;5051414;28;20057;-77
2023/07/08 08:21:54;;;;;;;13.55;3.45;;;;;;;;;;5034570;28;20052;-77
2023/07/08 08:24:20;;;;;;;16.17;3.95;;;;;;;;;;5051084;28;20025;-78
2023/07/08 08:26:45;;;;;;;6.68;2.97;;;;;;;;;;5052591;28;20040;-77
2023/07/08 08:29:11;;;;;;;6.38;3.05;;;;;;;;;;5050903;28;20385;-77
2023/07/08 08:31:36;;;;;;;6.10;2.88;;;;;;;;;;5034539;28;20029;-77
2023/07/08 08:34:02;;;;;;;6.82;3.35;;;;;;;;;;5052229;28;20025;-78
2023/07/08 08:36:27;;;;;;;6.88;3.10;;;;;;;;;;5052692;28;20072;-77
2023/07/08 08:38:52;;;;;;;4.75;3.10;;;;;;;;;;5052294;28;20033;-78
2023/07/08 08:41:24;;;;;;;5.90;2.92;;;;;;;;;;5051416;28;20124;-78
2023/07/08 08:43:50;;;;;;;5.82;3.15;;;;;;;;;;5051258;28;20112;-78
2023/07/08 08:46:39;;;;;;;5.07;3.00;;;;;;;;;;5067725;28;20120;-78
2023/07/08 08:49:18;;;;;;;4.22;2.72;;;;;;;;;;5053633;28;20118;-78
2023/07/08 08:51:43;;;;;;;6.22;3.10;;;;;;;;;;5054556;28;20021;-78
2023/07/08 08:54:09;;;;;;;5.85;3.25;;;;;;;;;;5054883;28;20037;-78
2023/07/08 08:57:01;;;;;;;8.40;3.10;;;;;;;;;;5054759;28;20475;-78
2023/07/08 08:59:41;;;;;;;6.03;3.13;;;;;;;;;;5056640;28;20074;-78
2023/07/08 09:02:22;;;;;;;4.85;3.03;;;;;;;;;;5055907;28;20025;-78
2023/07/08 09:04:48;;;;;;;4.18;2.45;;;;;;;;;;5056256;28;20479;-78
2023/07/08 09:07:16;;;;;;;7.82;3.88;;;;;;;;;;5054481;28;20035;-78
2023/07/08 09:10:35;;;;;;;5.57;2.95;;;;;;;;;;5054937;28;20028;-77
2023/07/08 09:13:03;;;;;;;3.88;2.60;;;;;;;;;;5029985;28;20396;-78
2023/07/08 09:15:28;;;;;;;5.00;3.28;;;;;;;;;;5055963;28;20045;-77
2023/07/08 09:17:57;;;;;;;6.40;2.95;;;;;;;;;;5055620;28;20031;-77
2023/07/08 09:20:27;;;;;;;4.95;2.70;;;;;;;;;;5037605;28;20100;-78
2023/07/08 09:23:03;;;;;;;5.90;2.97;;;;;;;;;;5055516;28;20055;-77
2023/07/08 09:25:51;;;;;;;4.82;2.33;;;;;;;;;;5055147;28;20448;-77
2023/07/08 09:28:16;;;;;;;5.22;2.60;;;;;;;;;;5020782;28;20029;-77
2023/07/08 09:30:45;;;;;;;4.13;2.60;;;;;;;;;;5055158;28;20171;-77
2023/07/08 09:33:11;;;;;;;3.30;2.42;;;;;;;;;;5037725;28;20368;-77
2023/07/08 09:35:47;;;;;;;3.83;2.63;;;;;;;;;;5020919;28;20029;-78
2023/07/08 09:38:16;;;;;;;4.50;2.40;;;;;;;;;;5037259;28;20021;-78
2023/07/08 09:40:48;;;;;;;4.97;2.53;;;;;;;;;;5037218;28;20095;-78
2023/07/08 09:43:17;;;;;;;3.63;2.85;;;;;;;;;;5020825;28;20020;-76
2023/07/08 09:45:46;;;;;;;5.82;2.50;;;;;;;;;;5036927;28;20024;-76
2023/07/08 09:48:18;;;;;;;4.22;2.33;;;;;;;;;;5037241;28;20079;-77
2023/07/08 09:50:51;;;;;;;4.30;2.72;;;;;;;;;;5036827;28;20029;-78
2023/07/08 09:53:16;;;;;;;4.63;3.00;;;;;;;;;;5020846;28;20036;-77
2023/07/08 09:55:42;;;;;;;4.10;2.53;;;;;;;;;;5037079;28;20495;-77
2023/07/08 09:58:13;;;;;;;3.05;2.40;;;;;;;;;;5020655;28;20437;-76
2023/07/08 10:00:41;;;;;;;3.50;2.60;;;;;;;;;;5036078;28;20111;-76
2023/07/08 10:03:17;;;;;;;4.90;2.45;;;;;;;;;;5036857;28;20053;-77
2023/07/08 10:05:43;;;;;;;6.43;2.80;;;;;;;;;;5036729;28;20025;-77
2023/07/08 10:08:16;;;;;;;4.95;2.85;;;;;;;;;;5035793;28;20037;-76
2023/07/08 10:10:42;;;;;;;7.23;3.47;;;;;;;;;;5035678;28;20127;-76
2023/07/08 10:13:24;;;;;;;7.75;3.28;;;;;;;;;;5035775;28;20047;-76
2023/07/08 10:16:02;;;;;;;6.70;3.78;;;;;;;;;;5055778;28;20040;-76
2023/07/08 10:18:29;;;;;;;6.72;3.30;;;;;;;;;;5055619;28;20025;-76
2023/07/08 10:20:57;;;;;;;7.07;3.67;;;;;;;;;;5055416;28;20078;-76
2023/07/08 10:23:38;;;;;;;7.90;3.67;;;;;;;;;;5038538;28;20119;-76
2023/07/08 10:26:17;;;;;;;8.93;3.78;;;;;;;;;;5055533;28;20043;-76
2023/07/08 10:28:49;;;;;;;8.13;3.60;;;;;;;;;;5038854;28;20119;-76
2023/07/08 10:31:27;;;;;;;13.23;3.90;;;;;;;;;;5039066;28;20528;-76
2023/07/08 10:34:23;;;;;;;6.00;3.90;;;;;;;;;;5055297;28;20052;-76
2023/07/08 10:36:53;;;;;;;11.00;4.50;;;;;;;;;;5055442;28;20024;-75
2023/07/08 10:39:19;;;;;;;9.43;4.68;;;;;;;;;;5054906;28;20422;-76
2023/07/08 10:42:07;;;;;;;9.48;4.25;;;;;;;;;;5054877;28;20085;-76
2023/07/08 10:44:47;;;;;;;9.63;4.63;;;;;;;;;;5055025;28;20558;-75
2023/07/08 10:47:37;;;;;;;8.85;4.38;;;;;;;;;;5072799;28;20041;-76
2023/07/08 10:50:15;;;;;;;8.13;4.35;;;;;;;;;;5054665;28;20068;-75
2023/07/08 10:52:40;;;;;;;11.82;4.43;;;;;;;;;;5072604;28;20466;-76
2023/07/08 10:55:44;;;;;;;8.80;4.38;;;;;;;;;;5072734;28;20059;-76
2023/07/08 10:58:42;;;;;;;10.48;4.40;;;;;;;;;;5054941;28;20017;-76
2023/07/08 11:01:33;;;;;;;10.82;5.15;;;;;;;;;;5038938;28;20503;-76
2023/07/08 11:04:20;;;;;;;12.15;6.72;;;;;;;;;;5069427;28;20043;-76
2023/07/08 11:06:55;;;;;;;13.63;7.35;;;;;;;;;;5072530;28;20108;-77
2023/07/08 11:09:35;;;;;;;11.52;6.10;;;;;;;;;;5037779;28;20034;-76
2023/07/08 11:12:29;;;;;;;14.75;8.10;;;;;;;;;;5054320;28;20036;-76
2023/07/08 11:15:18;;;;;;;15.55;8.00;;;;;;;;;;5028474;28;20403;-76
2023/07/08 11:18:09;;;;;;;23.40;9.60;;;;;;;;;;5051031;28;20029;-76
2023/07/08 11:20:52;;;;;;;19.08;9.88;;;;;;;;;;5051025;28;20475;-75
2023/07/08 11:23:35;;;;;;;16.63;8.17;;;;;;;;;;5052267;28;20032;-76
2023/07/08 11:26:22;;;;;;;17.27;9.02;;;;;;;;;;5034293;28;20274;-76
2023/07/08 11:28:49;;;;;;;13.98;8.65;;;;;;;;;;5052168;28;20100;-76
2023/07/08 11:31:15;;;;;;;16.50;10.05;;;;;;;;;;5035056;28;20490;-76
2023/07/08 11:33:41;;;;;;;15.90;10.05;;;;;;;;;;5051371;28;20033;-76
2023/07/08 11:36:08;;;;;;;19.83;10.20;;;;;;;;;;5053117;28;20481;-75
2023/07/08 11:38:34;;;;;;;20.73;11.15;;;;;;;;;;5051756;28;20025;-77
2023/07/08 11:41:05;;;;;;;17.63;10.73;;;;;;;;;;5052718;28;20452;-76
2023/07/08 11:43:45;;;;;;;18.35;10.98;;;;;;;;;;5051479;28;20044;-76
2023/07/08 11:46:15;;;;;;;18.35;11.05;;;;;;;;;;5051458;28;20025;-76
2023/07/08 11:48:47;;;;;;;17.67;11.25;;;;;;;;;;5051654;28;20036;-76
2023/07/08 11:51:22;;;;;;;19.52;11.77;;;;;;;;;;5051899;28;20020;-76
2023/07/08 11:53:50;;;;;;;19.55;12.05;;;;;;;;;;5051375;28;20029;-76
2023/07/08 11:56:15;;;;;;;16.45;10.95;;;;;;;;;;5051852;28;20071;-76
2023/07/08 11:59:08;;;;;;;16.00;11.23;;;;;;;;;;5052712;28;20476;-77
2023/07/08 12:02:00;;;;;;;17.05;11.02;;;;;;;;;;5052769;28;20480;-77
2023/07/08 12:04:35;;;;;;;15.52;11.07;;;;;;;;;;5051425;28;20033;-77
2023/07/08 12:07:12;;;;;;;18.45;11.25;;;;;;;;;;5051553;28;20481;-77
2023/07/08 12:09:46;;;;;;;18.08;11.20;;;;;;;;;;5051688;28;20037;-77
2023/07/08 12:12:16;;;;;;;;;;;;;;;;;;5068664;28;20025;-76
2023/07/08 12:14:41;;;;;;;16.17;10.45;;;;;;;;;;5054448;28;19916;-77
2023/07/08 12:17:14;;;;;;;16.58;11.45;;;;;;;;;;5054469;28;20043;-78
2023/07/08 12:19:42;;;;;;;16.58;10.40;;;;;;;;;;5054590;28;20072;-75
2023/07/08 12:22:08;;;;;;;18.38;10.68;;;;;;;;;;5054828;28;20036;-77
2023/07/08 12:24:34;;;;;;;19.52;11.02;;;;;;;;;;5057909;28;20036;-77
2023/07/08 12:26:59;;;;;;;15.10;10.20;;;;;;;;;;5058311;28;20033;-77
2023/07/08 12:29:25;;;;;;;14.65;10.32;;;;;;;;;;5058185;28;20064;-77
2023/07/08 12:31:50;;;;;;;16.63;11.07;;;;;;;;;;5058513;28;20143;-77
2023/07/08 12:34:16;;;;;;;16.70;10.68;;;;;;;;;;5076454;28;20060;-76
2023/07/08 12:36:45;;;;;;;15.98;10.73;;;;;;;;;;5058311;28;20036;-77
2023/07/08 12:39:16;;;;;;;18.48;11.20;;;;;;;;;;5058222;28;20048;-76
2023/07/08 12:41:44;;;;;;;15.82;10.50;;;;;;;;;;5058549;28;20027;-77
2023/07/08 12:44:27;;;;;;;13.65;10.32;;;;;;;;;;5058315;28;20028;-76
2023/07/08 12:46:54;;;;;;;16.60;10.20;;;;;;;;;;5076057;28;20071;-77
2023/07/08 12:49:20;;;;;;;13.90;9.73;;;;;;;;;;5041782;28;20097;-77
2023/07/08 12:51:46;;;;;;;14.48;9.60;;;;;;;;;;5075890;28;20029;-76
2023/07/08 12:54:12;;;;;;;14.45;10.02;;;;;;;;;;5058169;28;20024;-76
2023/07/08 12:56:39;;;;;;;14.02;9.32;;;;;;;;;;5041043;28;20411;-77
2023/07/08 12:59:05;;;;;;;13.02;9.32;;;;;;;;;;5057975;28;20474;-77
2023/07/08 13:01:32;;;;;;;13.43;9.55;;;;;;;;;;5058139;28;20033;-77
2023/07/08 13:04:03;;;;;;;15.77;9.88;;;;;;;;;;5057774;28;20056;-77
2023/07/08 13:06:31;;;;;;;13.13;8.77;;;;;;;;;;5057503;28;20020;-77
2023/07/08 13:09:23;;;;;;;12.13;9.45;;;;;;;;;;5057478;28;20029;-77
2023/07/08 13:11:52;;;;;;;12.80;8.90;;;;;;;;;;5057716;28;20139;-76
2023/07/08 13:14:19;;;;;;;12.27;8.63;;;;;;;;;;5066737;28;20056;-76
2023/07/08 13:16:44;;;;;;;12.63;8.02;;;;;;;;;;5020892;28;20032;-77
2023/07/08 13:19:12;;;;;;;11.52;8.50;;;;;;;;;;5038049;28;20029;-76
2023/07/08 13:21:37;;;;;;;12.65;8.65;;;;;;;;;;5037440;28;20021;-77
2023/07/08 13:24:11;;;;;;;11.23;8.35;;;;;;;;;;5055484;28;20037;-77
2023/07/08 13:26:36;;;;;;;;;;;;;;;;;;5021319;28;20032;-77
2023/07/08 13:29:09;;;;;;;11.73;7.63;;;;;;;;;;5037220;28;19916;-77
2023/07/08 13:31:37;;;;;;;12.82;8.07;;;;;;;;;;5037730;28;20250;-76
2023/07/08 13:34:09;;;;;;;11.60;8.20;;;;;;;;;;5037019;28;20112;-77
2023/07/08 13:36:39;;;;;;;13.40;8.05;;;;;;;;;;5055416;28;20021;-77
2023/07/08 13:39:09;;;;;;;11.35;7.75;;;;;;;;;;5037648;28;20013;-76
2023/07/08 13:41:35;;;;;;;10.27;7.35;;;;;;;;;;5037041;28;20056;-77
2023/07/08 13:44:08;;;;;;;11.23;7.40;;;;;;;;;;5037166;28;20440;-76
2023/07/08 13:46:36;;;;;;;10.43;7.80;;;;;;;;;;5020428;28;20383;-77
2023/07/08 13:49:13;;;;;;;9.35;7.20;;;;;;;;;;5055302;28;20063;-76
2023/07/08 13:51:40;;;;;;;11.18;6.88;;;;;;;;;;5054946;28;20120;-75
2023/07/08 13:54:38;;;;;;;11.07;7.25;;;;;;;;;;5037019;28;20079;-76
2023/07/08 13:57:09;;;;;;;10.05;7.13;;;;;;;;;;5033987;28;20120;-76
2023/07/08 13:59:35;;;;;;;9.80;6.85;;;;;;;;;;5037002;28;20400;-76
2023/07/08 14:02:00;;;;;;;12.20;7.38;;;;;;;;;;5036908;28;20037;-76
2023/07/08 14:04:34;;;;;;;8.77;6.60;;;;;;;;;;5036801;28;20036;-76
2023/07/08 14:06:59;;;;;;;10.43;6.50;;;;;;;;;;5054557;28;20036;-75
2023/07/08 14:09:25;;;;;;;7.75;6.05;;;;;;;;;;5019913;28;20033;-76
2023/07/08 14:11:51;;;;;;;9.43;6.20;;;;;;;;;;5054570;28;20033;-76
2023/07/08 14:14:17;;;;;;;8.35;6.15;;;;;;;;;;5028072;28;20388;-76
2023/07/08 14:16:49;;;;;;;7.43;6.00;;;;;;;;;;5039517;28;20055;-76
2023/07/08 14:19:19;;;;;;;7.25;5.70;;;;;;;;;;5057350;28;20013;-76
2023/07/08 14:21:44;;;;;;;9.88;6.25;;;;;;;;;;5056592;28;20028;-75
2023/07/08 14:24:12;;;;;;;7.30;5.57;;;;;;;;;;5073978;28;20443;-76
2023/07/08 14:26:40;;;;;;;7.70;5.57;;;;;;;;;;5075514;28;20142;-76
2023/07/08 14:29:06;;;;;;;6.95;5.55;;;;;;;;;;5039261;28;20554;-76
2023/07/08 14:31:31;;;;;;;7.80;5.78;;;;;;;;;;5039417;28;20211;-75
2023/07/08 14:34:03;;;;;;;8.52;5.47;;;;;;;;;;5039508;28;20063;-76
2023/07/08 14:36:28;;;;;;;7.90;5.88;;;;;;;;;;5039348;28;20475;-76
2023/07/08 14:38:53;;;;;;;6.82;5.35;;;;;;;;;;5074106;28;20029;-75
2023/07/08 14:41:19;;;;;;;8.18;5.40;;;;;;;;;;5039024;28;20094;-76
2023/07/08 14:43:44;;;;;;;8.40;5.93;;;;;;;;;;5056026;28;20043;-76
2023/07/08 14:46:10;;;;;;;8.45;5.93;;;;;;;;;;5038629;28;20373;-76
2023/07/08 14:48:36;;;;;;;8.45;5.65;;;;;;;;;;5055722;28;20494;-75